ADDS METAR Data INFO
IDs: Format: Raw Decoded Include TAF

Data at: 0318 UTC 20 Jul 2018

KLVL 200255Z AUTO 00000KT 10SM CLR 23/18 A3009 RMK AO1 T02310177
KLVL 200235Z AUTO 00000KT 10SM CLR 23/18 A3009 RMK AO1 T02310177
KLVL 200215Z AUTO 00000KT 10SM CLR 23/18 A3009 RMK AO1 T02340177
KLVL 200155Z AUTO 00000KT 10SM CLR 24/18 A3008 RMK AO1 T02370178
KLVL 200135Z AUTO 00000KT 10SM CLR 24/18 A3007 RMK AO1 T02400180
KLVL 200115Z AUTO 00000KT 10SM CLR 24/18 A3007 RMK AO1 T02410182
KLVL 200055Z AUTO 00000KT 10SM CLR 25/18 A3006 RMK AO1 T02460182
KLVL 200035Z AUTO 00000KT 10SM CLR 25/18 A3005 RMK AO1 T02500180
KLVL 200015Z AUTO 06003KT 10SM CLR 26/18 A3005 RMK AO1 T02580176
KLVL 192355Z AUTO 00000KT 10SM CLR 26/18 A3005 RMK AO1 T02620175 10307 20262
KLVL 192335Z AUTO 00000KT 10SM SCT065 BKN075 27/17 A3004 RMK AO1 T02710173
KLVL 192315Z AUTO 06004KT 10SM OVC065 28/17 A3004 RMK AO1 T02760169
KLVL 192255Z AUTO 00000KT 10SM BKN065 BKN075 29/15 A3003 RMK AO1 T02910148
KLVL 192235Z AUTO 00000KT 10SM SCT075 28/16 A3003 RMK AO1 T02770163
KLVL 192215Z AUTO 11003KT 10SM BKN070 BKN080 29/14 A3003 RMK AO1 T02930141
KLVL 192155Z AUTO 09004KT 10SM BKN070 OVC080 28/16 A3003 RMK AO1 T02800163
KLVL 192135Z AUTO 10003KT 10SM BKN070 29/14 A3003 RMK AO1 T02890136
KLVL 192115Z AUTO 10SM BKN070 30/13 A3004 RMK AO1 T03020128
KLVL 192055Z AUTO 00000KT 10SM SCT070 30/13 A3004 RMK AO1 T02980133
KLVL 192035Z AUTO 00000KT 10SM BKN070 30/13 A3005 RMK AO1 T02950127
KLVL 192015Z AUTO 09004KT 10SM BKN070 30/13 A3005 RMK AO1 T02980125
KLVL 191955Z AUTO 12003KT 10SM BKN070 BKN080 30/12 A3005 RMK AO1 T02950121
KLVL 191935Z AUTO 13004KT 10SM SCT070 30/12 A3006 RMK AO1 T03010122
KLVL 191915Z AUTO 08004KT 10SM SCT070 29/12 A3006 RMK AO1 T02900121
KLVL 191855Z AUTO 04004KT 10SM BKN070 30/13 A3007 RMK AO1 T03010128
KLVL 191835Z AUTO 00000KT 10SM SCT070 29/12 A3007 RMK AO1 T02930123
KLVL 191815Z AUTO 09004KT 10SM SCT080 29/12 A3007 RMK AO1 T02870121
KLVL 191755Z AUTO 04004KT 10SM BKN080 29/14 A3008 RMK AO1 T02900138 10293 20201
KLVL 191735Z AUTO 04004KT 10SM BKN060 BKN080 29/15 A3008 RMK AO1 T02860149
KLVL 191715Z AUTO 00000KT 10SM BKN060 BKN070 28/13 A3009 RMK AO1 T02800132
KLVL 191655Z AUTO 00000KT 10SM BKN060 OVC070 27/14 A3009 RMK AO1 T02740143
KLVL 191635Z AUTO 06003KT 10SM SCT060 BKN070 29/14 A3009 RMK AO1 T02860139
KLVL 191615Z AUTO 00000KT 10SM SCT050 BKN070 28/14 A3009 RMK AO1 T02820141
KLVL 191555Z AUTO 04006KT 10SM SCT050 SCT070 28/15 A3009 RMK AO1 T02780151
KLVL 191535Z AUTO 36003KT 10SM CLR 28/16 A3009 RMK AO1 T02830162
KLVL 191515Z AUTO 11003KT 10SM CLR 27/16 A3010 RMK AO1 T02740161
KLVL 191455Z AUTO 08003KT 10SM CLR 27/17 A3009 RMK AO1 T02670166
KLVL 191435Z AUTO 03003KT 10SM CLR 26/17 A3009 RMK AO1 T02640165
KLVL 191415Z AUTO 06003KT 10SM CLR 26/17 A3009 RMK AO1 T02600168
KLVL 191355Z AUTO 05003KT 10SM CLR 25/17 A3009 RMK AO1 T02500166
KLVL 191335Z AUTO 00000KT 10SM CLR 24/17 A3009 RMK AO1 T02430168
KLVL 191315Z AUTO 00000KT 10SM CLR 24/17 A3008 RMK AO1 T02350166
KLVL 191255Z AUTO 00000KT 10SM CLR 23/16 A3007 RMK AO1 T02260161
KLVL 191235Z AUTO 36003KT 10SM CLR 22/16 A3007 RMK AO1 T02160158
KLVL 191215Z AUTO 36004KT 10SM CLR 21/15 A3007 RMK AO1 T02090154
KLVL 191155Z AUTO 35004KT 10SM CLR 20/15 A3007 RMK AO1 T02010149 10201 20147
KLVL 191135Z AUTO 35003KT 10SM CLR 19/15 A3006 RMK AO1 T01940145
KLVL 191115Z AUTO 00000KT 10SM CLR 19/14 A3005 RMK AO1 T01860143
KLVL 191055Z AUTO 00000KT 10SM CLR 17/14 A3005 RMK AO1 T01710143
KLVL 191035Z AUTO 34003KT 10SM SCT070 17/14 A3005 RMK AO1 T01660141
KLVL 191015Z AUTO 00000KT 10SM SCT070 17/14 A3005 RMK AO1 T01650140
KLVL 190955Z AUTO 00000KT 10SM SCT070 15/14 A3004 RMK AO1 T01530135
KLVL 190935Z AUTO 00000KT 10SM CLR 16/14 A3003 RMK AO1 T01570142
KLVL 190915Z AUTO 00000KT 10SM CLR 16/14 A3003 RMK AO1 T01560144
KLVL 190855Z AUTO 00000KT 10SM CLR 16/14 A3003 RMK AO1 T01630137
KLVL 190835Z AUTO 00000KT 10SM CLR 17/14 A3002 RMK AO1 T01710144
KLVL 190815Z AUTO 00000KT 10SM CLR 18/15 A3002 RMK AO1 T01750145
KLVL 190755Z AUTO 00000KT 10SM CLR 18/15 A3002 RMK AO1 T01760147
KLVL 190735Z AUTO 00000KT 10SM CLR 17/15 A3002 RMK AO1 T01720147
KLVL 190715Z AUTO 00000KT 10SM CLR 18/15 A3002 RMK AO1 T01750150
KLVL 190655Z AUTO 00000KT 10SM CLR 18/15 A3002 RMK AO1 T01790152
KLVL 190635Z AUTO 00000KT 10SM CLR 18/16 A3003 RMK AO1 T01770157
KLVL 190615Z AUTO 00000KT 10SM CLR 17/16 A3003 RMK AO1 T01720159
KLVL 190555Z AUTO 00000KT 10SM CLR 17/16 A3003 RMK AO1 T01670155 10243 20160
KLVL 190535Z AUTO 00000KT 10SM CLR 17/15 A3003 RMK AO1 T01670153
KLVL 190515Z AUTO 00000KT 10SM CLR 18/16 A3003 RMK AO1 T01750155
KLVL 190455Z AUTO 00000KT 10SM CLR 18/16 A3002 RMK AO1 T01820156 402950182
KLVL 190435Z AUTO 00000KT 10SM CLR 19/16 A3002 RMK AO1 T01920160
KLVL 190415Z AUTO 00000KT 10SM CLR 20/16 A3001 RMK AO1 T01950156
KLVL 190355Z AUTO 00000KT 10SM CLR 20/16 A3001 RMK AO1 T01970155
KLVL 190335Z AUTO 00000KT 10SM CLR 20/16 A3001 RMK AO1 T01970160
KLVL 190315Z AUTO 00000KT 10SM CLR 20/16 A3000 RMK AO1 T01980162
KLVL 190255Z AUTO 00000KT 10SM CLR 20/16 A3000 RMK AO1 T01990163
KLVL 190235Z AUTO 00000KT 10SM CLR 21/16 A3000 RMK AO1 T02060161
KLVL 190215Z AUTO 00000KT 10SM CLR 21/16 A3000 RMK AO1 T02080162
KLVL 190155Z AUTO 00000KT 10SM CLR 21/16 A2999 RMK AO1 T02140161
KLVL 190135Z AUTO 00000KT 10SM CLR 21/16 A2998 RMK AO1 T02110157
KLVL 190115Z AUTO 00000KT 10SM CLR 22/16 A2998 RMK AO1 T02180161
KLVL 190055Z AUTO 00000KT 10SM CLR 22/16 A2997 RMK AO1 T02220163
KLVL 190035Z AUTO 00000KT 10SM CLR 23/15 A2997 RMK AO1 T02300151
KLVL 190015Z AUTO 00000KT 10SM CLR 23/16 A2997 RMK AO1 T02330155
KLVL 182355Z AUTO 00000KT 10SM CLR 25/15 A2998 RMK AO1 T02450152 10295 20245
KLVL 182335Z AUTO 00000KT 10SM CLR 27/14 A2997 RMK AO1 T02650142
KLVL 182315Z AUTO 00000KT 10SM CLR 27/14 A2997 RMK AO1 T02700138
KLVL 182255Z AUTO 00000KT 10SM CLR 28/14 A2996 RMK AO1 T02760138
KLVL 182235Z AUTO 03005KT 10SM CLR 28/13 A2995 RMK AO1 T02790130
KLVL 182215Z AUTO 36006KT 10SM CLR 28/14 A2995 RMK AO1 T02820135
KLVL 182155Z AUTO 33005KT 10SM CLR 29/14 A2995 RMK AO1 T02870135
KLVL 182135Z AUTO 34008KT 320V020 10SM CLR 29/14 A2995 RMK AO1 T02900137
KLVL 182115Z AUTO 34006KT 10SM CLR 29/13 A2995 RMK AO1 T02880134
KLVL 182055Z AUTO 35006KT 310V060 10SM CLR 29/14 A2995 RMK AO1 T02910138
KLVL 182035Z AUTO 36004KT 10SM SCT065 29/14 A2995 RMK AO1 T02910139
KLVL 182015Z AUTO 30003KT 10SM CLR 29/13 A2995 RMK AO1 T02900131
KLVL 181955Z AUTO 03003KT 10SM CLR 29/13 A2996 RMK AO1 T02880133
KLVL 181935Z AUTO 34005KT 10SM CLR 29/13 A2996 RMK AO1 T02890131
KLVL 181915Z AUTO 01005KT 10SM CLR 29/14 A2997 RMK AO1 T02890136
KLVL 181855Z AUTO 36003KT 10SM CLR 29/14 A2996 RMK AO1 T02860142
KLVL 181835Z AUTO 01005KT 10SM CLR 29/14 A2997 RMK AO1 T02880136
KLVL 181815Z AUTO 34005KT 10SM CLR 29/14 A2996 RMK AO1 T02890140
KLVL 181755Z AUTO 34007KT 310V030 10SM CLR 29/14 A2997 RMK AO1 T02880141 10288 20220
KLVL 181735Z AUTO 33007KT 10SM CLR 28/14 A2997 RMK AO1 T02810141
KLVL 181715Z AUTO 34009KT 10SM CLR 28/14 A2997 RMK AO1 T02830135
KLVL 181655Z AUTO 35003KT 10SM CLR 28/15 A2997 RMK AO1 T02760145
KLVL 181635Z AUTO 34005KT 10SM CLR 28/15 A2998 RMK AO1 T02750154
KLVL 181615Z AUTO 35006KT 10SM CLR 27/16 A2999 RMK AO1 T02690158
KLVL 181555Z AUTO 00000KT 10SM CLR 27/16 A2999 RMK AO1 T02650155
KLVL 181535Z AUTO 34005KT 10SM SCT065 SCT085 26/17 A2999 RMK AO1 T02610165